Time;durP1;ratioP1;P1;durP2;ratioP2;P2;SDS_P1;SDS_P2;PMS_P1;PMS_P2;Temp;Humidity;BMP_temperature;BMP_pressure;BME280_temperature;BME280_humidity;BME280_pressure;Samples;Min_cycle;Max_cycle;Signal;HPM_P1;HPM_P2
2021/12/03 00:00:11;;;;;;;7.72;1.80;;;;;;;;;;5104803;28;20044;-62
2021/12/03 00:02:37;;;;;;;5.55;1.52;;;;;;;;;;5104934;28;20048;-62
2021/12/03 00:05:04;;;;;;;4.70;1.50;;;;;;;;;;5103996;28;20101;-62
2021/12/03 00:07:30;;;;;;;5.22;2.55;;;;;;;;;;5104254;28;20051;-62
2021/12/03 00:09:57;;;;;;;4.65;1.65;;;;;;;;;;5104578;28;20040;-62
2021/12/03 00:12:23;;;;;;;4.07;1.70;;;;;;;;;;5104380;28;20059;-62
2021/12/03 00:14:49;;;;;;;6.65;1.90;;;;;;;;;;5104338;28;20111;-62
2021/12/03 00:17:15;;;;;;;11.05;2.05;;;;;;;;;;5104885;28;20100;-62
2021/12/03 00:19:42;;;;;;;6.97;2.33;;;;;;;;;;5104288;28;20088;-62
2021/12/03 00:22:08;;;;;;;9.75;2.88;;;;;;;;;;5103851;28;20063;-62
2021/12/03 00:24:34;;;;;;;9.38;3.30;;;;;;;;;;5103856;28;20347;-60
2021/12/03 00:27:00;;;;;;;5.93;2.50;;;;;;;;;;5104288;28;20052;-62
2021/12/03 00:29:26;;;;;;;6.10;2.50;;;;;;;;;;5104961;28;20071;-62
2021/12/03 00:31:52;;;;;;;6.25;2.08;;;;;;;;;;5104275;28;20044;-62
2021/12/03 00:34:18;;;;;;;5.45;1.92;;;;;;;;;;5106588;28;20100;-62
2021/12/03 00:36:44;;;;;;;9.65;1.98;;;;;;;;;;5108342;28;20044;-61
2021/12/03 00:39:11;;;;;;;7.65;2.10;;;;;;;;;;5108990;28;20487;-61
2021/12/03 00:41:45;;;;;;;8.05;1.77;;;;;;;;;;5108190;28;20065;-62
2021/12/03 00:44:11;;;;;;;10.88;2.25;;;;;;;;;;5108616;28;20048;-62
2021/12/03 00:46:37;;;;;;;13.13;2.35;;;;;;;;;;5108341;28;20123;-61
2021/12/03 00:49:03;;;;;;;5.93;2.03;;;;;;;;;;5108462;28;20107;-62
2021/12/03 00:51:29;;;;;;;10.18;1.88;;;;;;;;;;5107904;28;20104;-62
2021/12/03 00:53:56;;;;;;;9.30;2.45;;;;;;;;;;5108022;28;20044;-61
2021/12/03 00:56:22;;;;;;;5.30;1.80;;;;;;;;;;5107884;28;20551;-60
2021/12/03 00:58:49;;;;;;;6.82;1.80;;;;;;;;;;5108872;28;20066;-62
2021/12/03 01:01:15;;;;;;;4.72;2.42;;;;;;;;;;5108030;28;20127;-62
2021/12/03 01:03:42;;;;;;;8.05;2.58;;;;;;;;;;5108129;28;20044;-61
2021/12/03 01:06:09;;;;;;;2.53;1.80;;;;;;;;;;5107371;28;20117;-62
2021/12/03 01:08:35;;;;;;;12.55;3.50;;;;;;;;;;5108158;28;20103;-62
2021/12/03 01:11:03;;;;;;;3.20;1.60;;;;;;;;;;5107850;28;20135;-62
2021/12/03 01:13:29;;;;;;;8.77;1.80;;;;;;;;;;5108233;28;20051;-61
2021/12/03 01:15:55;;;;;;;7.57;2.00;;;;;;;;;;5107765;28;20149;-61
2021/12/03 01:18:22;;;;;;;5.93;2.10;;;;;;;;;;5107937;28;20105;-61
2021/12/03 01:20:48;;;;;;;10.15;1.98;;;;;;;;;;5106834;28;20044;-61
2021/12/03 01:23:14;;;;;;;7.30;2.30;;;;;;;;;;5107591;28;20044;-61
2021/12/03 01:25:41;;;;;;;7.93;1.83;;;;;;;;;;5107326;28;20087;-62
2021/12/03 01:28:07;;;;;;;5.45;2.35;;;;;;;;;;5108153;28;20071;-62
2021/12/03 01:30:34;;;;;;;7.57;2.80;;;;;;;;;;5107492;28;20044;-62
2021/12/03 01:33:02;;;;;;;12.85;2.67;;;;;;;;;;5107398;28;20040;-61
2021/12/03 01:35:29;;;;;;;10.60;2.53;;;;;;;;;;5107221;28;20036;-62
2021/12/03 01:37:55;;;;;;;6.72;1.75;;;;;;;;;;5107449;28;20048;-61
2021/12/03 01:40:23;;;;;;;7.72;2.03;;;;;;;;;;5107406;28;20100;-61
2021/12/03 01:42:50;;;;;;;12.95;3.00;;;;;;;;;;5107476;28;20411;-60
2021/12/03 01:45:21;;;;;;;6.50;2.00;;;;;;;;;;5106892;28;20070;-61
2021/12/03 01:47:48;;;;;;;11.75;2.53;;;;;;;;;;5107244;28;20103;-61
2021/12/03 01:50:15;;;;;;;6.05;2.30;;;;;;;;;;5106673;28;20048;-62
2021/12/03 01:52:41;;;;;;;8.40;2.53;;;;;;;;;;5106840;28;20095;-62
2021/12/03 01:55:09;;;;;;;11.00;3.00;;;;;;;;;;5107440;28;20083;-61
2021/12/03 01:57:35;;;;;;;8.02;2.25;;;;;;;;;;5107068;28;20083;-61
2021/12/03 02:00:01;;;;;;;6.65;2.10;;;;;;;;;;5106979;28;20058;-61
2021/12/03 02:02:28;;;;;;;8.38;1.95;;;;;;;;;;5106856;28;20081;-61
2021/12/03 02:04:57;;;;;;;8.15;2.13;;;;;;;;;;5107033;28;20047;-61
2021/12/03 02:07:23;;;;;;;6.70;2.30;;;;;;;;;;5106243;28;20066;-61
2021/12/03 02:09:49;;;;;;;8.07;2.03;;;;;;;;;;5107236;28;20044;-61
2021/12/03 02:12:15;;;;;;;6.20;2.25;;;;;;;;;;5112381;28;20107;-61
2021/12/03 02:14:42;;;;;;;4.25;1.98;;;;;;;;;;5127342;28;20107;-61
2021/12/03 02:17:08;;;;;;;8.52;2.35;;;;;;;;;;5127227;28;20127;-61
2021/12/03 02:19:34;;;;;;;8.52;2.08;;;;;;;;;;5124955;28;20105;-61
2021/12/03 02:22:00;;;;;;;6.55;1.98;;;;;;;;;;5105949;28;20077;-61
2021/12/03 02:24:27;;;;;;;6.75;2.13;;;;;;;;;;5107059;28;20100;-61
2021/12/03 02:26:53;;;;;;;8.93;2.15;;;;;;;;;;5106199;28;20119;-61
2021/12/03 02:29:19;;;;;;;11.45;2.35;;;;;;;;;;5106574;28;20047;-60
2021/12/03 02:31:45;;;;;;;5.30;2.33;;;;;;;;;;5105814;28;20039;-60
2021/12/03 02:34:11;;;;;;;11.02;2.92;;;;;;;;;;5106198;28;20044;-61
2021/12/03 02:36:38;;;;;;;6.03;2.47;;;;;;;;;;5105892;28;20047;-61
2021/12/03 02:39:04;;;;;;;11.43;3.00;;;;;;;;;;5106603;28;20131;-61
2021/12/03 02:41:30;;;;;;;13.88;3.47;;;;;;;;;;5105691;28;20438;-62
2021/12/03 02:43:56;;;;;;;7.93;2.60;;;;;;;;;;5106250;28;20040;-62
2021/12/03 02:46:23;;;;;;;7.68;2.50;;;;;;;;;;5106216;28;20046;-61
2021/12/03 02:48:49;;;;;;;4.18;2.13;;;;;;;;;;5106276;28;20069;-61
2021/12/03 02:51:15;;;;;;;12.02;2.83;;;;;;;;;;5103624;28;20364;-61
2021/12/03 02:53:41;;;;;;;8.65;2.13;;;;;;;;;;5085736;28;20077;-61
2021/12/03 02:56:08;;;;;;;11.35;2.22;;;;;;;;;;5084705;28;20127;-62
2021/12/03 02:58:34;;;;;;;5.63;2.47;;;;;;;;;;5085732;28;20131;-62
2021/12/03 03:01:02;;;;;;;4.38;2.03;;;;;;;;;;5099579;28;20060;-62
2021/12/03 03:03:28;;;;;;;5.28;2.00;;;;;;;;;;5106002;28;20133;-61
2021/12/03 03:05:55;;;;;;;5.38;2.45;;;;;;;;;;5105257;28;20396;-62
2021/12/03 03:08:21;;;;;;;17.02;2.85;;;;;;;;;;5105857;28;20052;-61
2021/12/03 03:10:48;;;;;;;10.68;2.70;;;;;;;;;;5093142;28;20397;-61
2021/12/03 03:13:14;;;;;;;8.05;2.85;;;;;;;;;;5085361;28;20112;-61
2021/12/03 03:15:40;;;;;;;9.65;3.25;;;;;;;;;;5090319;28;20047;-61
2021/12/03 03:18:14;;;;;;;8.07;3.00;;;;;;;;;;5087843;28;20055;-62
2021/12/03 03:20:41;;;;;;;6.57;3.38;;;;;;;;;;5084821;28;20072;-61
2021/12/03 03:23:08;;;;;;;12.77;4.43;;;;;;;;;;5102083;28;20051;-61
2021/12/03 03:25:34;;;;;;;6.35;3.50;;;;;;;;;;5104910;28;20539;-61
2021/12/03 03:28:00;;;;;;;9.85;4.55;;;;;;;;;;5089455;28;20057;-62
2021/12/03 03:30:26;;;;;;;10.52;4.72;;;;;;;;;;5084832;28;20044;-62
2021/12/03 03:32:52;;;;;;;14.43;6.00;;;;;;;;;;5084917;28;20040;-61
2021/12/03 03:35:19;;;;;;;15.48;7.50;;;;;;;;;;5084479;28;20051;-61
2021/12/03 03:37:45;;;;;;;16.55;7.57;;;;;;;;;;5079740;28;20079;-61
2021/12/03 03:40:12;;;;;;;18.27;7.45;;;;;;;;;;5104834;28;20115;-61
2021/12/03 03:42:38;;;;;;;15.95;7.70;;;;;;;;;;5087079;28;20481;-61
2021/12/03 03:45:07;;;;;;;17.95;9.00;;;;;;;;;;5105035;28;20040;-61
2021/12/03 03:47:35;;;;;;;17.20;9.02;;;;;;;;;;5093250;28;20075;-62
2021/12/03 03:50:01;;;;;;;19.13;10.50;;;;;;;;;;5084887;28;20059;-61
2021/12/03 03:52:28;;;;;;;18.17;11.68;;;;;;;;;;5084346;28;20044;-61
2021/12/03 03:54:54;;;;;;;33.20;14.05;;;;;;;;;;5084570;28;20076;-61
2021/12/03 03:57:20;;;;;;;28.40;14.77;;;;;;;;;;5095472;28;20036;-61
2021/12/03 03:59:46;;;;;;;24.35;14.32;;;;;;;;;;5105011;28;20108;-62
2021/12/03 04:02:13;;;;;;;31.85;16.63;;;;;;;;;;5104839;28;20107;-62
2021/12/03 04:04:39;;;;;;;27.58;18.48;;;;;;;;;;5104895;28;20555;-62
2021/12/03 04:07:05;;;;;;;30.40;19.27;;;;;;;;;;5094945;28;20117;-61
2021/12/03 04:09:31;;;;;;;31.73;18.98;;;;;;;;;;5084177;28;20048;-62
2021/12/03 04:11:57;;;;;;;33.58;21.80;;;;;;;;;;5092004;28;20037;-61
2021/12/03 04:14:23;;;;;;;36.22;22.73;;;;;;;;;;5104812;28;20079;-61
2021/12/03 04:16:50;;;;;;;37.42;21.88;;;;;;;;;;5098342;28;20036;-61
2021/12/03 04:19:18;;;;;;;37.47;22.08;;;;;;;;;;5095918;28;20052;-61
2021/12/03 04:21:44;;;;;;;;;;;;;;;;;;5104251;28;20036;-61
2021/12/03 04:24:10;;;;;;;36.20;23.35;;;;;;;;;;5087602;28;20415;-61
2021/12/03 04:26:36;;;;;;;36.17;24.55;;;;;;;;;;5084050;28;20079;-61
2021/12/03 04:29:03;;;;;;;39.78;26.55;;;;;;;;;;5092824;28;20406;-62
2021/12/03 04:31:29;;;;;;;35.08;24.77;;;;;;;;;;5104638;28;20044;-62
2021/12/03 04:33:55;;;;;;;34.22;21.58;;;;;;;;;;5104522;28;20111;-60
2021/12/03 04:36:22;;;;;;;33.25;23.20;;;;;;;;;;5099301;28;20099;-61
2021/12/03 04:38:48;;;;;;;38.75;24.38;;;;;;;;;;5084336;28;20036;-61
2021/12/03 04:41:14;;;;;;;37.38;24.20;;;;;;;;;;5084026;28;20055;-61
2021/12/03 04:43:40;;;;;;;40.25;24.80;;;;;;;;;;5084381;28;20048;-60
2021/12/03 04:46:07;;;;;;;38.15;23.95;;;;;;;;;;5085382;28;20048;-61
2021/12/03 04:48:33;;;;;;;33.97;22.60;;;;;;;;;;5104369;28;20131;-60
2021/12/03 04:50:59;;;;;;;37.25;23.38;;;;;;;;;;5103730;28;20471;-61
2021/12/03 04:53:25;;;;;;;31.58;22.33;;;;;;;;;;5104414;28;20123;-60
2021/12/03 04:55:51;;;;;;;33.13;23.20;;;;;;;;;;5103832;28;20124;-61
2021/12/03 04:58:18;;;;;;;40.90;22.70;;;;;;;;;;5084595;28;20106;-61
2021/12/03 05:00:51;;;;;;;37.53;22.45;;;;;;;;;;5083831;28;20120;-60
2021/12/03 05:03:18;;;;;;;27.77;19.80;;;;;;;;;;5102218;28;20083;-61
2021/12/03 05:05:51;;;;;;;33.70;21.98;;;;;;;;;;5103691;28;20070;-61
2021/12/03 05:08:17;;;;;;;25.17;18.52;;;;;;;;;;5085046;28;20044;-62
2021/12/03 05:10:44;;;;;;;32.50;22.45;;;;;;;;;;5083561;28;20055;-62
2021/12/03 05:13:15;;;;;;;36.70;21.10;;;;;;;;;;5084212;28;20508;-61
2021/12/03 05:15:42;;;;;;;31.48;22.25;;;;;;;;;;5083721;28;20044;-61
2021/12/03 05:18:08;;;;;;;33.38;21.48;;;;;;;;;;5101129;28;20087;-62
2021/12/03 05:20:35;;;;;;;27.70;19.47;;;;;;;;;;5106327;28;20081;-62
2021/12/03 05:23:01;;;;;;;31.65;20.25;;;;;;;;;;5107988;28;20121;-61
2021/12/03 05:25:27;;;;;;;26.08;17.52;;;;;;;;;;5107448;28;20056;-61
2021/12/03 05:27:54;;;;;;;31.05;18.67;;;;;;;;;;5092538;28;20049;-61
2021/12/03 05:30:20;;;;;;;26.25;17.98;;;;;;;;;;5087248;28;20044;-61
2021/12/03 05:32:47;;;;;;;23.48;16.13;;;;;;;;;;5087468;28;20124;-61
2021/12/03 05:35:13;;;;;;;21.80;16.77;;;;;;;;;;5086993;28;20067;-61
2021/12/03 05:37:39;;;;;;;24.98;17.00;;;;;;;;;;5100254;28;20043;-61
2021/12/03 05:40:08;;;;;;;26.58;17.58;;;;;;;;;;5107536;28;20115;-62
2021/12/03 05:42:34;;;;;;;30.85;17.52;;;;;;;;;;5107666;28;20081;-61
2021/12/03 05:45:00;;;;;;;24.42;17.58;;;;;;;;;;5107478;28;20052;-61
2021/12/03 05:47:26;;;;;;;25.55;17.73;;;;;;;;;;5093898;28;20047;-61
2021/12/03 05:49:53;;;;;;;23.05;17.30;;;;;;;;;;5088045;28;20048;-61
2021/12/03 05:52:19;;;;;;;27.88;16.65;;;;;;;;;;5103170;28;20078;-61
2021/12/03 05:54:45;;;;;;;24.95;15.73;;;;;;;;;;5107572;28;20107;-62
2021/12/03 05:57:12;;;;;;;26.02;16.13;;;;;;;;;;5107275;28;20088;-61
2021/12/03 05:59:38;;;;;;;21.23;14.40;;;;;;;;;;5098165;28;20048;-61
2021/12/03 06:02:04;;;;;;;27.88;15.82;;;;;;;;;;5086665;28;20048;-61
2021/12/03 06:04:30;;;;;;;25.52;18.02;;;;;;;;;;5086681;28;20104;-61
2021/12/03 06:06:57;;;;;;;25.08;17.17;;;;;;;;;;5096895;28;20044;-61
2021/12/03 06:09:23;;;;;;;23.73;17.48;;;;;;;;;;5107407;28;20043;-60
2021/12/03 06:11:49;;;;;;;26.65;17.48;;;;;;;;;;5106764;28;20040;-61
2021/12/03 06:14:15;;;;;;;26.20;15.77;;;;;;;;;;5106835;28;20063;-61
2021/12/03 06:16:41;;;;;;;22.95;16.23;;;;;;;;;;5098108;28;20052;-61
2021/12/03 06:19:07;;;;;;;25.23;15.90;;;;;;;;;;5086291;28;20048;-61
2021/12/03 06:21:34;;;;;;;25.17;17.80;;;;;;;;;;5085793;28;20142;-62
2021/12/03 06:24:00;;;;;;;23.30;18.17;;;;;;;;;;5086486;28;20074;-61
2021/12/03 06:26:26;;;;;;;23.65;16.88;;;;;;;;;;5087015;28;20394;-61
2021/12/03 06:28:52;;;;;;;24.20;18.08;;;;;;;;;;5086307;28;20048;-61
2021/12/03 06:31:18;;;;;;;26.33;18.02;;;;;;;;;;5084793;28;20036;-61
2021/12/03 06:33:44;;;;;;;25.42;17.88;;;;;;;;;;5086225;28;20045;-61
2021/12/03 06:36:10;;;;;;;25.40;18.13;;;;;;;;;;5091378;28;20048;-61
2021/12/03 06:38:38;;;;;;;28.42;18.50;;;;;;;;;;5104862;28;20099;-61
2021/12/03 06:41:05;;;;;;;23.90;17.02;;;;;;;;;;5104870;28;20051;-61
2021/12/03 06:43:31;;;;;;;24.25;18.55;;;;;;;;;;5104419;28;20108;-61
2021/12/03 06:45:58;;;;;;;26.10;18.20;;;;;;;;;;5097213;28;20062;-62
2021/12/03 06:48:24;;;;;;;28.52;17.90;;;;;;;;;;5097666;28;20130;-62
2021/12/03 06:50:51;;;;;;;27.50;18.58;;;;;;;;;;5093157;28;20032;-61
2021/12/03 06:53:20;;;;;;;28.40;17.33;;;;;;;;;;5098619;28;20048;-61
2021/12/03 06:55:57;;;;;;;27.20;19.02;;;;;;;;;;5099142;28;20051;-61
2021/12/03 06:58:23;;;;;;;23.63;18.67;;;;;;;;;;5087021;28;20070;-61
2021/12/03 07:00:51;;;;;;;30.80;19.52;;;;;;;;;;5098736;28;20048;-61
2021/12/03 07:03:18;;;;;;;27.27;17.23;;;;;;;;;;5100154;28;20423;-62
2021/12/03 07:05:44;;;;;;;25.80;15.40;;;;;;;;;;5100154;28;20036;-61
2021/12/03 07:08:10;;;;;;;28.10;18.20;;;;;;;;;;5099669;28;20058;-61
2021/12/03 07:10:36;;;;;;;25.17;16.02;;;;;;;;;;5102055;28;20036;-61
2021/12/03 07:13:03;;;;;;;25.23;15.75;;;;;;;;;;5103861;28;20044;-61
2021/12/03 07:15:29;;;;;;;20.83;14.68;;;;;;;;;;5085153;28;20048;-61
2021/12/03 07:17:55;;;;;;;23.15;14.25;;;;;;;;;;5101950;28;20173;-61
2021/12/03 07:20:23;;;;;;;21.38;14.40;;;;;;;;;;5099869;28;20042;-61
2021/12/03 07:22:49;;;;;;;23.30;14.15;;;;;;;;;;5106099;28;20048;-62
2021/12/03 07:25:16;;;;;;;20.73;13.48;;;;;;;;;;5104807;28;20056;-61
2021/12/03 07:27:42;;;;;;;16.67;11.10;;;;;;;;;;5105456;28;20048;-61
2021/12/03 07:30:09;;;;;;;19.58;11.80;;;;;;;;;;5103576;28;20050;-61
2021/12/03 07:32:36;;;;;;;24.00;12.13;;;;;;;;;;5105200;28;20125;-61
2021/12/03 07:35:02;;;;;;;21.35;11.40;;;;;;;;;;5105265;28;20106;-61
2021/12/03 07:37:29;;;;;;;24.73;12.30;;;;;;;;;;5104851;28;20096;-61
2021/12/03 07:39:56;;;;;;;17.73;10.43;;;;;;;;;;5103299;28;20581;-61
2021/12/03 07:42:22;;;;;;;15.63;10.02;;;;;;;;;;5104601;28;20048;-61
2021/12/03 07:44:49;;;;;;;18.85;9.88;;;;;;;;;;5105101;28;20142;-61
2021/12/03 07:47:15;;;;;;;17.15;9.60;;;;;;;;;;5104953;28;20050;-61
2021/12/03 07:49:41;;;;;;;13.18;9.00;;;;;;;;;;5092343;28;20052;-63
2021/12/03 07:52:11;;;;;;;16.60;9.18;;;;;;;;;;5084074;28;20040;-61
2021/12/03 07:54:38;;;;;;;13.25;9.13;;;;;;;;;;5084517;28;20082;-61
2021/12/03 07:57:04;;;;;;;18.70;9.02;;;;;;;;;;5084535;28;20056;-62
2021/12/03 07:59:30;;;;;;;14.43;7.72;;;;;;;;;;5085577;28;20037;-61
2021/12/03 08:01:56;;;;;;;17.08;8.32;;;;;;;;;;5084312;28;20120;-61
2021/12/03 08:04:22;;;;;;;10.80;6.88;;;;;;;;;;5084691;28;20122;-62
2021/12/03 08:06:52;;;;;;;10.73;7.43;;;;;;;;;;5083896;28;20051;-61
2021/12/03 08:09:18;;;;;;;13.15;6.35;;;;;;;;;;5090174;28;20048;-62
2021/12/03 08:11:45;;;;;;;14.98;7.43;;;;;;;;;;5097039;28;20040;-62
2021/12/03 08:14:11;;;;;;;15.50;6.60;;;;;;;;;;5094690;28;20562;-62
2021/12/03 08:16:38;;;;;;;12.77;6.25;;;;;;;;;;5098477;28;20074;-62
2021/12/03 08:19:05;;;;;;;10.57;6.25;;;;;;;;;;5104342;28;20040;-62
2021/12/03 08:21:31;;;;;;;19.67;6.53;;;;;;;;;;5097000;28;20051;-62
2021/12/03 08:23:57;;;;;;;9.25;5.75;;;;;;;;;;5098572;28;20047;-62
2021/12/03 08:26:24;;;;;;;11.75;6.00;;;;;;;;;;5101856;28;20056;-62
2021/12/03 08:28:50;;;;;;;15.48;5.25;;;;;;;;;;5100641;28;20055;-62
2021/12/03 08:31:16;;;;;;;13.82;6.07;;;;;;;;;;5093634;28;20067;-60
2021/12/03 08:33:43;;;;;;;8.57;5.10;;;;;;;;;;5095517;28;20089;-60
2021/12/03 08:36:10;;;;;;;10.57;5.07;;;;;;;;;;5099664;28;20411;-66
2021/12/03 08:38:36;;;;;;;10.50;5.25;;;;;;;;;;5091575;28;20037;-64
2021/12/03 08:41:02;;;;;;;12.52;5.18;;;;;;;;;;5093800;28;20041;-64
2021/12/03 08:43:28;;;;;;;13.23;5.47;;;;;;;;;;5095231;28;20044;-63
2021/12/03 08:45:55;;;;;;;11.15;5.70;;;;;;;;;;5087964;28;20024;-63
2021/12/03 08:48:23;;;;;;;15.98;5.38;;;;;;;;;;5090490;28;20065;-64
2021/12/03 08:51:07;;;;;;;11.63;5.80;;;;;;;;;;5092237;28;20095;-64
2021/12/03 08:56:18;;;;;;;16.77;5.60;;;;;;;;;;5098772;28;20393;-64
2021/12/03 08:58:44;;;;;;;10.60;5.68;;;;;;;;;;5098768;28;20052;-63
2021/12/03 09:01:13;;;;;;;14.38;5.95;;;;;;;;;;5103839;28;20057;-64
2021/12/03 09:03:39;;;;;;;16.13;5.63;;;;;;;;;;5095112;28;20047;-64
2021/12/03 09:06:05;;;;;;;10.68;5.93;;;;;;;;;;5096656;28;20071;-65
2021/12/03 09:08:31;;;;;;;17.00;7.00;;;;;;;;;;5094870;28;20075;-65
2021/12/03 09:10:57;;;;;;;21.00;6.68;;;;;;;;;;5092174;28;20107;-64
2021/12/03 09:13:23;;;;;;;13.70;6.43;;;;;;;;;;5097617;28;20051;-65
2021/12/03 09:16:15;;;;;;;18.02;7.40;;;;;;;;;;5095169;28;20043;-64
2021/12/03 09:18:39;;;;;;;15.68;6.93;;;;;;;;;;5102289;28;20054;-65
2021/12/03 09:26:24;;;;;;;17.85;8.68;;;;;;;;;;5094096;28;20049;-64
2021/12/03 09:28:55;;;;;;;17.88;8.02;;;;;;;;;;5097088;28;20103;-64
2021/12/03 09:31:22;;;;;;;20.92;9.27;;;;;;;;;;5097699;28;20044;-64
2021/12/03 09:33:50;;;;;;;20.27;9.23;;;;;;;;;;5100536;28;20028;-63
2021/12/03 09:36:16;;;;;;;21.73;9.15;;;;;;;;;;5099567;28;20123;-64
2021/12/03 09:38:42;;;;;;;19.75;10.18;;;;;;;;;;5096772;28;20113;-64
2021/12/03 09:41:08;;;;;;;21.70;10.30;;;;;;;;;;5099795;28;20476;-64
2021/12/03 09:43:36;;;;;;;23.23;10.40;;;;;;;;;;5097887;28;20052;-65
2021/12/03 09:46:23;;;;;;;21.40;10.82;;;;;;;;;;5098554;28;20044;-68
2021/12/03 09:51:33;;;;;;;34.33;12.77;;;;;;;;;;5081041;28;20082;-71
2021/12/03 09:56:41;;;;;;;23.92;11.40;;;;;;;;;;5102728;28;20044;-74
2021/12/03 10:02:03;;;;;;;22.17;11.57;;;;;;;;;;5104164;28;20048;-69
2021/12/03 10:14:48;;;;;;;25.70;12.18;;;;;;;;;;5100017;28;20040;-72
2021/12/03 10:19:56;;;;;;;25.48;11.30;;;;;;;;;;5099042;28;20507;-65
2021/12/03 10:33:34;;;;;;;18.02;9.82;;;;;;;;;;5096635;28;20068;-72
2021/12/03 10:36:16;;;;;;;23.48;10.23;;;;;;;;;;5094647;28;20051;-77
2021/12/03 10:43:54;;;;;;;26.30;10.55;;;;;;;;;;5084481;28;20099;-82
2021/12/03 10:49:13;;;;;;;19.85;8.13;;;;;;;;;;5096676;28;20104;-73
2021/12/03 11:08:13;;;;;;;19.80;7.47;;;;;;;;;;5102768;28;20046;-69
2021/12/03 11:29:52;;;;;;;15.55;6.40;;;;;;;;;;5106217;28;20075;-69
2021/12/03 12:23:29;;;;;;;19.83;5.97;;;;;;;;;;5093226;28;20056;-61
2021/12/03 14:44:54;;;;;;;9.07;4.93;;;;;;;;;;5099144;28;20063;-70
2021/12/03 14:47:39;;;;;;;8.15;4.55;;;;;;;;;;5082749;28;21541;-72
2021/12/03 14:56:06;;;;;;;13.70;5.43;;;;;;;;;;5044722;28;20536;-73
2021/12/03 14:58:55;;;;;;;11.13;4.80;;;;;;;;;;5043655;28;20065;-69
2021/12/03 15:06:49;;;;;;;11.98;4.35;;;;;;;;;;5054822;28;20048;-69
2021/12/03 15:09:21;;;;;;;14.57;6.30;;;;;;;;;;5057342;28;20053;-63
2021/12/03 15:25:38;;;;;;;10.90;6.10;;;;;;;;;;5060782;28;20049;-69
2021/12/03 15:33:11;;;;;;;13.70;6.93;;;;;;;;;;5101895;28;20083;-74
2021/12/03 15:38:37;;;;;;;10.48;6.80;;;;;;;;;;5100138;28;20144;-63
2021/12/03 16:18:50;;;;;;;19.23;13.10;;;;;;;;;;5077824;28;20059;-62
2021/12/03 16:46:18;;;;;;;20.95;14.85;;;;;;;;;;5099594;28;20047;-61
2021/12/03 16:51:33;;;;;;;18.52;15.35;;;;;;;;;;5100019;28;20040;-60
2021/12/03 16:54:06;;;;;;;19.42;15.38;;;;;;;;;;5098514;28;20052;-62
2021/12/03 16:56:33;;;;;;;24.08;18.50;;;;;;;;;;5098940;28;20427;-59
2021/12/03 16:59:00;;;;;;;20.60;15.97;;;;;;;;;;5101656;28;20063;-60
2021/12/03 17:04:11;;;;;;;19.92;16.70;;;;;;;;;;5100844;28;20048;-59
2021/12/03 17:09:46;;;;;;;17.42;15.32;;;;;;;;;;5100427;28;20040;-59
2021/12/03 17:18:00;;;;;;;21.98;16.92;;;;;;;;;;5094972;28;20044;-60
2021/12/03 17:57:56;;;;;;;24.92;18.25;;;;;;;;;;5096813;28;20044;-60
2021/12/03 18:00:30;;;;;;;25.65;19.45;;;;;;;;;;5095911;28;20480;-59
2021/12/03 18:03:07;;;;;;;24.83;19.02;;;;;;;;;;5080269;28;20044;-59
2021/12/03 18:05:58;;;;;;;23.67;18.52;;;;;;;;;;5094232;28;20082;-60
2021/12/03 18:08:38;;;;;;;25.77;17.13;;;;;;;;;;5093329;28;20084;-60
2021/12/03 18:43:58;;;;;;;28.83;21.13;;;;;;;;;;5098890;28;20055;-68
2021/12/03 18:47:02;;;;;;;29.38;20.55;;;;;;;;;;5094687;28;20073;-68
2021/12/03 18:49:31;;;;;;;26.45;19.50;;;;;;;;;;5093335;28;20048;-66
2021/12/03 18:54:53;;;;;;;26.42;18.33;;;;;;;;;;5085827;28;20109;-68
2021/12/03 18:57:25;;;;;;;31.33;20.05;;;;;;;;;;5099847;28;20052;-70
2021/12/03 19:00:04;;;;;;;38.17;23.58;;;;;;;;;;5092026;28;20090;-71
2021/12/03 19:02:32;;;;;;;35.80;23.30;;;;;;;;;;5081366;28;20075;-72
2021/12/03 19:05:03;;;;;;;;;;;;;;;;;;5101902;28;20134;-74
2021/12/03 19:07:34;;;;;;;33.80;22.45;;;;;;;;;;5081271;28;19942;-72
2021/12/03 19:10:06;;;;;;;33.13;23.20;;;;;;;;;;5101683;28;20048;-72
2021/12/03 19:12:35;;;;;;;35.47;24.20;;;;;;;;;;5081982;28;20275;-71
2021/12/03 19:15:02;;;;;;;30.13;22.55;;;;;;;;;;5104150;28;20047;-72
2021/12/03 19:17:35;;;;;;;36.03;24.20;;;;;;;;;;5101717;28;20032;-73
2021/12/03 19:20:03;;;;;;;37.50;23.52;;;;;;;;;;5101429;28;20127;-72
2021/12/03 19:22:30;;;;;;;35.97;23.95;;;;;;;;;;5100659;28;20086;-62
2021/12/03 19:24:58;;;;;;;35.63;24.27;;;;;;;;;;5099730;28;20469;-65
2021/12/03 19:27:25;;;;;;;;;;;;;;;;;;5099014;28;20063;-64
2021/12/03 19:29:54;;;;;;;38.78;26.30;;;;;;;;;;5100121;28;20446;-63
2021/12/03 19:32:20;;;;;;;43.47;28.77;;;;;;;;;;5103160;28;20039;-67
2021/12/03 19:34:47;;;;;;;43.72;27.63;;;;;;;;;;5100742;28;20104;-71
2021/12/03 19:37:13;;;;;;;39.67;24.92;;;;;;;;;;5100605;28;20079;-65
2021/12/03 19:39:39;;;;;;;45.42;27.55;;;;;;;;;;5101263;28;20032;-68
2021/12/03 19:42:30;;;;;;;46.45;28.25;;;;;;;;;;5104342;28;20423;-64
2021/12/03 19:45:00;;;;;;;44.80;29.73;;;;;;;;;;5101568;28;20052;-65
2021/12/03 19:47:33;;;;;;;50.33;30.00;;;;;;;;;;5086488;28;20045;-65
2021/12/03 19:50:13;;;;;;;45.88;28.10;;;;;;;;;;5092361;28;20407;-65
2021/12/03 19:52:48;;;;;;;53.53;31.83;;;;;;;;;;5097516;28;20059;-66
2021/12/03 19:55:14;;;;;;;40.45;27.80;;;;;;;;;;5104651;28;20047;-65
2021/12/03 19:57:40;;;;;;;51.50;31.42;;;;;;;;;;5082352;28;20072;-66
2021/12/03 20:00:07;;;;;;;49.25;31.50;;;;;;;;;;5099612;28;20130;-66
2021/12/03 20:02:33;;;;;;;51.03;31.75;;;;;;;;;;5097263;28;20064;-65
2021/12/03 20:05:00;;;;;;;53.00;32.97;;;;;;;;;;5096094;28;20040;-66
2021/12/03 20:07:26;;;;;;;55.63;33.67;;;;;;;;;;5085420;28;20119;-65
2021/12/03 20:10:05;;;;;;;56.50;33.72;;;;;;;;;;5093179;28;20063;-65
2021/12/03 20:12:33;;;;;;;53.65;31.80;;;;;;;;;;5097930;28;20052;-66
2021/12/03 20:15:01;;;;;;;56.85;33.63;;;;;;;;;;5088672;28;20044;-66
2021/12/03 20:19:57;;;;;;;58.58;36.70;;;;;;;;;;5095749;28;20119;-66
2021/12/03 20:27:51;;;;;;;64.85;36.45;;;;;;;;;;5088732;28;20074;-66
2021/12/03 20:30:23;;;;;;;63.00;34.58;;;;;;;;;;5097038;28;20047;-66
2021/12/03 20:33:08;;;;;;;54.78;31.17;;;;;;;;;;5079121;28;20135;-67
2021/12/03 20:38:12;;;;;;;49.38;30.33;;;;;;;;;;5097110;28;20052;-66
2021/12/03 20:40:39;;;;;;;59.20;35.20;;;;;;;;;;5081269;28;20045;-66
2021/12/03 20:46:01;;;;;;;63.67;37.15;;;;;;;;;;5097696;28;20044;-66
2021/12/03 20:53:54;;;;;;;64.50;35.05;;;;;;;;;;5097862;28;20044;-66
2021/12/03 21:10:06;;;;;;;61.72;35.72;;;;;;;;;;5100270;28;20051;-66
2021/12/03 21:12:44;;;;;;;62.10;35.08;;;;;;;;;;5094389;28;20072;-66
2021/12/03 21:20:34;;;;;;;68.00;37.38;;;;;;;;;;5093845;28;20571;-65
2021/12/03 21:23:05;;;;;;;67.15;37.35;;;;;;;;;;5096410;28;20044;-66
2021/12/03 21:25:35;;;;;;;51.92;29.33;;;;;;;;;;5095894;28;20250;-66
2021/12/03 21:30:54;;;;;;;55.65;33.08;;;;;;;;;;5105859;28;20465;-66
2021/12/03 21:41:21;;;;;;;69.65;37.92;;;;;;;;;;5093883;28;20075;-66
2021/12/03 21:43:48;;;;;;;67.28;37.95;;;;;;;;;;5102324;28;20040;-66
2021/12/03 21:46:17;;;;;;;67.88;35.40;;;;;;;;;;5101589;28;20040;-65
2021/12/03 21:48:43;;;;;;;68.05;36.70;;;;;;;;;;5099864;28;20089;-66
2021/12/03 21:51:09;;;;;;;61.15;34.05;;;;;;;;;;5101017;28;20040;-66
2021/12/03 21:53:35;;;;;;;66.60;36.65;;;;;;;;;;5102507;28;20044;-66
2021/12/03 21:56:02;;;;;;;56.45;33.97;;;;;;;;;;5102515;28;20522;-66
2021/12/03 21:58:28;;;;;;;73.40;39.00;;;;;;;;;;5100852;28;20051;-66
2021/12/03 22:00:54;;;;;;;64.45;34.28;;;;;;;;;;5099895;28;20113;-67
2021/12/03 22:03:20;;;;;;;64.35;36.42;;;;;;;;;;5100900;28;20047;-66
2021/12/03 22:05:48;;;;;;;74.50;36.00;;;;;;;;;;5097816;28;20036;-66
2021/12/03 22:08:14;;;;;;;;;;;;;;;;;;5098666;28;20194;-66
2021/12/03 22:10:40;;;;;;;72.38;37.67;;;;;;;;;;5093735;28;20120;-66
2021/12/03 22:13:08;;;;;;;56.38;33.22;;;;;;;;;;5099841;28;20553;-66
2021/12/03 22:15:34;;;;;;;;;;;;;;;;;;5099849;28;20044;-66
2021/12/03 22:18:00;;;;;;;72.03;36.75;;;;;;;;;;5098430;28;19924;-65
2021/12/03 22:20:27;;;;;;;65.93;34.25;;;;;;;;;;5095815;28;20591;-66
2021/12/03 22:22:53;;;;;;;71.28;37.90;;;;;;;;;;5091178;28;20419;-65
2021/12/03 22:25:20;;;;;;;69.75;36.72;;;;;;;;;;5091862;28;20135;-66
2021/12/03 22:27:47;;;;;;;67.78;36.20;;;;;;;;;;5098495;28;20074;-63
2021/12/03 22:30:13;;;;;;;64.97;31.65;;;;;;;;;;5099603;28;20048;-63
2021/12/03 22:32:39;;;;;;;80.90;39.00;;;;;;;;;;5104382;28;20056;-63
2021/12/03 22:35:06;;;;;;;62.72;32.88;;;;;;;;;;5102442;28;20045;-63
2021/12/03 22:37:32;;;;;;;67.43;35.87;;;;;;;;;;5099708;28;20050;-64
2021/12/03 22:40:00;;;;;;;72.20;35.80;;;;;;;;;;5099968;28;20047;-64
2021/12/03 22:42:26;;;;;;;67.63;35.25;;;;;;;;;;5100150;28;20050;-63
2021/12/03 22:44:52;;;;;;;70.13;34.78;;;;;;;;;;5099819;28;20048;-63
2021/12/03 22:47:34;;;;;;;64.43;35.25;;;;;;;;;;5103902;28;20051;-64
2021/12/03 22:52:39;;;;;;;67.35;32.83;;;;;;;;;;5103666;28;20048;-64
2021/12/03 22:55:10;;;;;;;63.20;32.65;;;;;;;;;;5078890;28;20103;-63
2021/12/03 22:57:38;;;;;;;59.83;33.25;;;;;;;;;;5098633;28;20041;-63